Time;durP1;ratioP1;P1;durP2;ratioP2;P2;SDS_P1;SDS_P2;PMS_P1;PMS_P2;Temp;Humidity;BMP_temperature;BMP_pressure;BME280_temperature;BME280_humidity;BME280_pressure;Samples;Min_cycle;Max_cycle;Signal;HPM_P1;HPM_P2
2023/04/11 00:01:48;;;;;;;17.13;3.63;;;;;;;8.87;100.00;100643.34;5051870;28;20041;-56
2023/04/11 00:04:19;;;;;;;21.88;4.13;;;;;;;8.91;100.00;100642.25;5052115;28;20531;-60
2023/04/11 00:06:48;;;;;;;15.93;4.05;;;;;;;8.91;100.00;100638.78;5054305;28;20432;-56
2023/04/11 00:09:16;;;;;;;18.02;4.47;;;;;;;8.92;100.00;100638.69;5055594;28;20657;-57
2023/04/11 00:11:46;;;;;;;19.08;4.15;;;;;;;8.91;100.00;100639.63;5053495;28;20079;-56
2023/04/11 00:14:16;;;;;;;17.10;4.05;;;;;;;8.91;100.00;100644.03;5051203;28;20053;-56
2023/04/11 00:16:44;;;;;;;23.15;4.63;;;;;;;8.90;100.00;100639.72;5051307;28;20087;-56
2023/04/11 00:19:14;;;;;;;20.40;4.28;;;;;;;8.95;100.00;100637.66;5052586;28;20080;-55
2023/04/11 00:21:42;;;;;;;23.42;4.82;;;;;;;8.93;100.00;100643.00;5055139;28;20495;-55
2023/04/11 00:24:11;;;;;;;17.23;4.30;;;;;;;8.92;100.00;100636.06;5053078;28;20045;-56
2023/04/11 00:26:41;;;;;;;25.10;5.03;;;;;;;8.99;100.00;100638.31;5051244;28;20511;-55
2023/04/11 00:29:11;;;;;;;23.05;4.90;;;;;;;8.94;100.00;100638.59;5054547;28;20099;-55
2023/04/11 00:31:39;;;;;;;19.55;4.38;;;;;;;8.92;100.00;100638.69;5055391;28;20053;-56
2023/04/11 00:34:07;;;;;;;18.38;4.72;;;;;;;8.91;100.00;100631.75;5055084;28;20044;-56
2023/04/11 00:36:35;;;;;;;19.75;4.68;;;;;;;8.90;100.00;100637.09;5052227;28;20080;-55
2023/04/11 00:39:03;;;;;;;31.73;5.07;;;;;;;8.90;100.00;100639.72;5051957;28;20432;-56
2023/04/11 00:41:32;;;;;;;21.83;4.40;;;;;;;8.86;100.00;100641.69;5051213;28;20041;-56
2023/04/11 00:44:03;;;;;;;18.95;4.57;;;;;;;8.85;100.00;100642.63;5054249;28;20102;-55
2023/04/11 00:46:35;;;;;;;18.08;3.97;;;;;;;8.80;100.00;100648.13;5054807;28;20083;-55
2023/04/11 00:49:03;;;;;;;21.98;4.57;;;;;;;8.80;100.00;100652.56;5053559;28;20041;-55
2023/04/11 00:51:32;;;;;;;18.58;4.50;;;;;;;8.77;100.00;100652.75;5051207;28;20072;-55
2023/04/11 00:54:01;;;;;;;26.50;5.18;;;;;;;8.76;100.00;100658.91;5051565;28;20102;-53
2023/04/11 00:56:29;;;;;;;22.88;5.35;;;;;;;8.72;100.00;100654.78;5050744;28;20052;-56
2023/04/11 00:58:57;;;;;;;22.92;4.60;;;;;;;8.72;100.00;100653.00;5054923;28;20057;-54
2023/04/11 01:01:25;;;;;;;21.88;4.80;;;;;;;8.70;100.00;100654.03;5053568;28;20041;-56
2023/04/11 01:03:55;;;;;;;20.10;4.32;;;;;;;8.63;100.00;100656.19;5051403;28;20439;-55
2023/04/11 01:06:26;;;;;;;23.97;4.50;;;;;;;8.53;100.00;100655.06;5051019;28;20053;-55
2023/04/11 01:08:54;;;;;;;22.80;5.25;;;;;;;8.51;100.00;100657.75;5051207;28;20511;-56
2023/04/11 01:11:24;;;;;;;22.30;5.03;;;;;;;8.42;100.00;100660.91;5050442;28;20041;-55
2023/04/11 01:13:52;;;;;;;23.85;5.18;;;;;;;8.40;100.00;100660.16;5050309;28;20045;-55
2023/04/11 01:16:21;;;;;;;24.48;4.25;;;;;;;8.32;100.00;100651.88;5051118;28;20055;-56
2023/04/11 01:18:49;;;;;;;19.77;4.68;;;;;;;8.35;100.00;100655.16;5051238;28;20136;-56
2023/04/11 01:21:20;;;;;;;23.13;4.32;;;;;;;8.37;100.00;100655.94;5050985;28;20044;-55
2023/04/11 01:23:51;;;;;;;21.48;4.28;;;;;;;8.31;100.00;100652.84;5054391;28;20055;-56
2023/04/11 01:26:20;;;;;;;24.15;4.25;;;;;;;8.28;100.00;100654.69;5054102;28;20475;-56
2023/04/11 01:28:48;;;;;;;25.10;4.00;;;;;;;8.20;100.00;100658.69;5054255;28;20052;-55
2023/04/11 01:31:16;;;;;;;22.17;4.13;;;;;;;8.22;100.00;100654.19;5051609;28;20128;-55
2023/04/11 01:33:44;;;;;;;26.30;4.80;;;;;;;8.16;100.00;100658.00;5050519;28;20103;-56
2023/04/11 01:36:13;;;;;;;22.65;3.95;;;;;;;8.12;100.00;100657.34;5053994;28;20041;-56
2023/04/11 01:38:41;;;;;;;23.90;4.63;;;;;;;8.16;100.00;100658.00;5053861;28;20060;-55
2023/04/11 01:41:11;;;;;;;25.23;4.78;;;;;;;8.08;100.00;100662.84;5050329;28;20045;-56
2023/04/11 01:43:39;;;;;;;22.98;5.35;;;;;;;8.04;100.00;100658.72;5050512;28;20072;-56
2023/04/11 01:46:10;;;;;;;26.42;4.70;;;;;;;8.01;100.00;100657.13;5048957;28;20063;-55
2023/04/11 01:48:38;;;;;;;23.90;4.90;;;;;;;8.03;100.00;100655.28;5050313;28;20395;-55
2023/04/11 01:51:07;;;;;;;20.27;4.30;;;;;;;8.11;100.00;100654.81;5052177;28;20037;-54
2023/04/11 01:53:35;;;;;;;26.55;4.10;;;;;;;8.02;100.00;100655.38;5051053;28;20405;-54
2023/04/11 01:56:03;;;;;;;21.33;4.97;;;;;;;7.97;100.00;100655.63;5051599;28;20051;-54
2023/04/11 01:58:36;;;;;;;23.30;4.53;;;;;;;7.97;100.00;100662.63;5050280;28;20120;-55
2023/04/11 02:01:05;;;;;;;26.35;4.50;;;;;;;7.93;100.00;100661.97;5049664;28;20080;-56
2023/04/11 02:03:33;;;;;;;26.77;4.63;;;;;;;7.84;100.00;100668.56;5053144;28;20079;-56
2023/04/11 02:06:01;;;;;;;27.52;4.35;;;;;;;7.77;100.00;100659.34;5053177;28;20103;-54
2023/04/11 02:08:30;;;;;;;27.35;4.63;;;;;;;7.77;100.00;100664.59;5053617;28;20048;-55
2023/04/11 02:10:58;;;;;;;22.10;4.60;;;;;;;7.78;100.00;100664.53;5053403;28;20068;-57
2023/04/11 02:13:26;;;;;;;28.73;4.57;;;;;;;7.75;100.00;100661.22;5053140;28;20049;-56
2023/04/11 02:15:55;;;;;;;24.73;4.55;;;;;;;7.75;100.00;100667.28;5049772;28;20051;-55
2023/04/11 02:18:23;;;;;;;26.30;4.80;;;;;;;7.69;100.00;100658.94;5050524;28;20069;-56
2023/04/11 02:20:51;;;;;;;26.83;4.57;;;;;;;7.66;100.00;100664.34;5053179;28;20099;-57
2023/04/11 02:23:19;;;;;;;23.85;4.05;;;;;;;7.66;100.00;100669.59;5051162;28;20303;-56
2023/04/11 02:25:49;;;;;;;22.65;4.40;;;;;;;7.63;100.00;100675.00;5049133;28;20587;-56
2023/04/11 02:28:17;;;;;;;26.10;4.70;;;;;;;7.58;100.00;100667.38;5049217;28;20124;-55
2023/04/11 02:30:46;;;;;;;21.33;3.55;;;;;;;7.56;100.00;100671.88;5050593;28;20056;-54
2023/04/11 02:33:15;;;;;;;27.35;3.85;;;;;;;7.50;100.00;100669.59;5052921;28;20059;-56
2023/04/11 02:35:43;;;;;;;25.45;4.28;;;;;;;7.50;100.00;100670.44;5051041;28;20103;-55
2023/04/11 02:38:11;;;;;;;19.92;3.80;;;;;;;7.47;100.00;100673.22;5049672;28;20151;-54
2023/04/11 02:40:39;;;;;;;20.60;4.28;;;;;;;7.48;100.00;100674.91;5049197;28;20076;-55
2023/04/11 02:43:08;;;;;;;25.58;4.18;;;;;;;7.48;100.00;100687.16;5052728;28;20124;-54
2023/04/11 02:45:36;;;;;;;26.40;4.15;;;;;;;7.46;100.00;100682.00;5052707;28;20045;-56
2023/04/11 02:48:05;;;;;;;22.20;3.67;;;;;;;7.49;100.00;100688.84;5052797;28;20102;-55
2023/04/11 02:50:34;;;;;;;17.30;2.80;;;;;;;7.36;100.00;100689.53;5052710;28;20069;-54
2023/04/11 02:53:06;;;;;;;;;;;;;;;7.26;100.00;100702.22;5053143;28;20377;-55
2023/04/11 02:55:37;;;;;;;11.70;2.35;;;;;;;7.16;100.00;100695.81;5050914;28;19924;-54
2023/04/11 02:58:06;;;;;;;9.32;2.13;;;;;;;7.10;100.00;100691.75;5048603;28;20061;-55
2023/04/11 03:00:34;;;;;;;12.80;2.67;;;;;;;7.07;100.00;100698.91;5051191;28;20049;-54
2023/04/11 03:03:02;;;;;;;16.33;3.35;;;;;;;7.13;100.00;100703.84;5052372;28;20068;-53
2023/04/11 03:05:30;;;;;;;22.10;3.92;;;;;;;7.11;100.00;100703.06;5052439;28;20512;-54
2023/04/11 03:08:00;;;;;;;14.30;2.80;;;;;;;7.12;100.00;100696.91;5052407;28;20052;-54
2023/04/11 03:10:28;;;;;;;14.40;2.83;;;;;;;7.15;100.00;100690.66;5051181;28;20052;-53
2023/04/11 03:12:56;;;;;;;19.90;3.47;;;;;;;7.19;100.00;100694.81;5052275;28;20048;-55
2023/04/11 03:15:24;;;;;;;16.80;2.97;;;;;;;7.20;100.00;100697.34;5052485;28;20057;-53
2023/04/11 03:17:52;;;;;;;16.38;3.10;;;;;;;7.23;100.00;100694.56;5052427;28;20041;-55
2023/04/11 03:20:20;;;;;;;22.40;3.40;;;;;;;7.26;100.00;100694.38;5052000;28;20124;-54
2023/04/11 03:22:48;;;;;;;28.52;3.78;;;;;;;7.27;100.00;100687.41;5049919;28;20041;-60
2023/04/11 03:25:18;;;;;;;21.02;3.25;;;;;;;7.33;100.00;100691.44;5050997;28;20072;-60
2023/04/11 03:27:46;;;;;;;24.23;4.07;;;;;;;7.32;100.00;100697.59;5052199;28;20056;-59
2023/04/11 03:30:14;;;;;;;28.67;3.22;;;;;;;7.31;100.00;100706.38;5052045;28;20463;-59
2023/04/11 03:32:43;;;;;;;26.73;4.05;;;;;;;7.31;100.00;100701.13;5048375;28;20091;-61
2023/04/11 03:35:11;;;;;;;18.45;2.90;;;;;;;7.38;100.00;100702.53;5049506;28;20106;-61
2023/04/11 03:37:39;;;;;;;23.17;3.35;;;;;;;7.35;100.00;100700.03;5049940;28;20053;-60
2023/04/11 03:40:09;;;;;;;17.27;3.10;;;;;;;7.30;100.00;100705.53;5052134;28;20106;-59
2023/04/11 03:42:38;;;;;;;18.60;3.53;;;;;;;7.27;100.00;100705.72;5056327;28;20468;-59
2023/04/11 03:45:08;;;;;;;20.98;3.25;;;;;;;7.24;100.00;100696.25;5053573;28;20430;-59
2023/04/11 03:47:38;;;;;;;20.90;3.63;;;;;;;7.21;100.00;100706.88;5054186;28;20568;-59
2023/04/11 03:50:07;;;;;;;19.83;3.83;;;;;;;7.19;100.00;100720.97;5054463;28;20408;-59
2023/04/11 03:52:35;;;;;;;21.83;3.50;;;;;;;7.16;100.00;100721.97;5056181;28;20383;-60
2023/04/11 03:55:04;;;;;;;18.30;3.38;;;;;;;7.20;100.00;100725.25;5056025;28;20037;-60
2023/04/11 03:57:33;;;;;;;19.52;3.38;;;;;;;7.20;100.00;100728.72;5054337;28;20084;-60
2023/04/11 04:00:04;;;;;;;24.83;2.92;;;;;;;7.16;100.00;100726.34;5053541;28;20381;-60
2023/04/11 04:02:32;;;;;;;21.55;3.35;;;;;;;7.16;100.00;100735.06;5056011;28;20559;-60
2023/04/11 04:05:01;;;;;;;17.77;2.83;;;;;;;7.15;100.00;100741.19;5054533;28;20057;-60
2023/04/11 04:07:30;;;;;;;16.17;2.65;;;;;;;7.16;100.00;100740.28;5054800;28;20044;-59
2023/04/11 04:09:58;;;;;;;13.68;2.50;;;;;;;7.18;100.00;100742.81;5053738;28;20048;-59
2023/04/11 04:12:26;;;;;;;17.92;2.45;;;;;;;7.15;100.00;100751.66;5053128;28;20102;-59
2023/04/11 04:14:54;;;;;;;14.80;2.53;;;;;;;7.17;100.00;100751.56;5053825;28;20053;-59
2023/04/11 04:17:24;;;;;;;16.70;2.30;;;;;;;7.17;100.00;100752.44;5055055;28;20063;-59
2023/04/11 04:19:52;;;;;;;15.07;2.72;;;;;;;7.21;100.00;100742.66;5053547;28;20506;-59
2023/04/11 04:22:21;;;;;;;14.65;2.20;;;;;;;7.18;100.00;100750.66;5054849;28;20053;-59
2023/04/11 04:24:50;;;;;;;13.85;2.67;;;;;;;7.20;100.00;100751.41;5053555;28;20099;-59
2023/04/11 04:27:18;;;;;;;10.73;1.90;;;;;;;7.19;100.00;100761.03;5053231;28;20041;-59
2023/04/11 04:29:47;;;;;;;9.95;2.53;;;;;;;7.16;100.00;100760.34;5054715;28;20044;-60
2023/04/11 04:32:21;;;;;;;8.80;1.88;;;;;;;7.16;100.00;100771.66;5053434;28;20253;-60
2023/04/11 04:34:54;;;;;;;10.35;2.33;;;;;;;7.19;100.00;100778.50;5052739;28;20106;-59
2023/04/11 04:37:24;;;;;;;12.07;2.20;;;;;;;7.16;100.00;100782.13;5053378;28;20496;-59
2023/04/11 04:39:53;;;;;;;13.75;2.08;;;;;;;7.18;100.00;100774.19;5054840;28;20049;-59
2023/04/11 04:42:25;;;;;;;;;;;;;;;7.18;100.00;100779.44;5053192;28;20107;-59
2023/04/11 04:44:55;;;;;;;12.30;2.25;;;;;;;7.18;100.00;100779.44;5052967;28;19929;-59
2023/04/11 04:47:24;;;;;;;10.98;2.15;;;;;;;7.17;100.00;100781.22;5053249;28;20107;-59
2023/04/11 04:49:56;;;;;;;9.20;1.65;;;;;;;7.13;100.00;100792.75;5054844;28;20451;-59
2023/04/11 04:52:26;;;;;;;8.43;2.47;;;;;;;7.12;100.00;100785.84;5052910;28;20504;-59
2023/04/11 04:54:56;;;;;;;11.85;1.98;;;;;;;7.14;100.00;100797.03;5053055;28;20468;-59
2023/04/11 04:57:25;;;;;;;13.40;1.80;;;;;;;7.18;100.00;100802.97;5052823;28;20049;-59
2023/04/11 04:59:54;;;;;;;7.75;1.90;;;;;;;7.17;100.00;100810.00;5054250;28;20045;-60
2023/04/11 05:02:24;;;;;;;13.43;2.47;;;;;;;7.17;100.00;100807.38;5052635;28;20103;-60
2023/04/11 05:04:52;;;;;;;12.63;2.08;;;;;;;7.17;100.00;100804.75;5052668;28;20053;-60
2023/04/11 05:07:22;;;;;;;11.55;1.90;;;;;;;7.19;100.00;100813.34;5052913;28;20052;-61
2023/04/11 05:09:50;;;;;;;12.60;2.15;;;;;;;7.20;100.00;100817.66;5054019;28;20056;-60
2023/04/11 05:12:20;;;;;;;15.10;2.10;;;;;;;7.25;100.00;100818.28;5053401;28;20124;-60
2023/04/11 05:14:51;;;;;;;10.90;2.92;;;;;;;7.21;100.00;100823.72;5052393;28;20041;-60
2023/04/11 05:17:19;;;;;;;9.45;1.92;;;;;;;7.20;100.00;100827.25;5053323;28;20451;-60
2023/04/11 05:19:50;;;;;;;13.10;1.85;;;;;;;7.14;100.00;100835.44;5053155;28;20445;-60
2023/04/11 05:22:18;;;;;;;14.35;1.70;;;;;;;7.16;100.00;100833.56;5052991;28;20041;-60
2023/04/11 05:24:48;;;;;;;9.98;1.77;;;;;;;7.19;100.00;100842.13;5053426;28;20496;-60
2023/04/11 05:27:17;;;;;;;15.45;2.33;;;;;;;7.19;100.00;100849.97;5053770;28;20067;-60
2023/04/11 05:29:46;;;;;;;12.65;1.85;;;;;;;7.19;100.00;100846.53;5054478;28;20061;-60
2023/04/11 05:32:14;;;;;;;10.68;1.83;;;;;;;7.15;100.00;100853.66;5054473;28;20068;-61
2023/04/11 05:34:52;;;;;;;10.57;1.70;;;;;;;7.11;100.00;100858.19;5054262;28;20049;-60
2023/04/11 05:37:22;;;;;;;10.70;1.63;;;;;;;7.08;100.00;100854.91;5054279;28;20103;-60
2023/04/11 05:39:52;;;;;;;9.13;1.65;;;;;;;7.08;100.00;100868.81;5054122;28;20045;-60
2023/04/11 05:42:20;;;;;;;10.02;1.40;;;;;;;7.09;100.00;100877.53;5054228;28;20049;-60
2023/04/11 05:44:51;;;;;;;8.82;1.58;;;;;;;7.03;100.00;100875.22;5054170;28;20081;-60
2023/04/11 05:47:19;;;;;;;7.22;1.40;;;;;;;7.01;100.00;100877.91;5054173;28;20703;-60
2023/04/11 05:49:47;;;;;;;11.60;1.65;;;;;;;6.98;100.00;100880.69;5054259;28;20053;-60
2023/04/11 05:52:15;;;;;;;11.00;1.70;;;;;;;6.97;100.00;100897.28;5054081;28;20045;-60
2023/04/11 05:54:43;;;;;;;9.35;1.30;;;;;;;6.98;100.00;100887.66;5053867;28;20033;-60
2023/04/11 05:57:17;;;;;;;7.05;1.58;;;;;;;6.96;100.00;100898.19;5052367;28;20040;-60
2023/04/11 05:59:48;;;;;;;13.00;1.73;;;;;;;6.96;100.00;100897.38;5052942;28;20043;-60
2023/04/11 06:02:16;;;;;;;7.50;1.10;;;;;;;7.01;100.00;100897.97;5052689;28;20049;-60
2023/04/11 06:04:45;;;;;;;11.02;1.42;;;;;;;6.99;100.00;100907.66;5052141;28;20048;-60
2023/04/11 06:07:13;;;;;;;6.05;1.35;;;;;;;7.03;100.00;100903.97;5053542;28;20052;-60
2023/04/11 06:09:41;;;;;;;11.10;1.27;;;;;;;7.02;100.00;100908.38;5053664;28;20044;-60
2023/04/11 06:12:10;;;;;;;8.00;1.40;;;;;;;7.07;100.00;100908.97;5053756;28;20051;-60
2023/04/11 06:14:39;;;;;;;9.68;1.55;;;;;;;7.07;100.00;100906.34;5054055;28;20110;-60
2023/04/11 06:17:08;;;;;;;11.07;1.50;;;;;;;7.13;100.00;100907.84;5052416;28;20049;-60
2023/04/11 06:19:36;;;;;;;14.43;1.35;;;;;;;7.17;100.00;100908.50;5053564;28;20053;-60
2023/04/11 06:22:04;;;;;;;6.32;2.05;;;;;;;7.21;100.00;100918.78;5052401;28;20106;-60
2023/04/11 06:24:36;;;;;;;10.48;1.63;;;;;;;7.28;100.00;100919.31;5051721;28;20053;-60
2023/04/11 06:27:05;;;;;;;14.52;2.85;;;;;;;7.32;100.00;100925.22;5051457;28;20053;-60
2023/04/11 06:29:33;;;;;;;9.98;1.88;;;;;;;7.36;100.00;100925.00;5051873;28;20049;-60
2023/04/11 06:32:03;;;;;;;10.88;1.27;;;;;;;7.47;100.00;100927.03;5053181;28;20064;-60
2023/04/11 06:34:31;;;;;;;5.07;1.45;;;;;;;7.52;100.00;100934.69;5053500;28;20516;-60
2023/04/11 06:36:59;;;;;;;10.43;2.17;;;;;;;7.58;100.00;100931.75;5053412;28;20485;-60
2023/04/11 06:39:27;;;;;;;9.90;1.50;;;;;;;7.73;100.00;100938.81;5053275;28;20037;-60
2023/04/11 06:41:55;;;;;;;7.53;1.45;;;;;;;7.76;100.00;100938.66;5053630;28;20525;-60
2023/04/11 06:44:23;;;;;;;6.47;1.35;;;;;;;7.84;100.00;100935.66;5053062;28;20033;-60
2023/04/11 06:46:51;;;;;;;10.88;1.98;;;;;;;7.90;100.00;100945.78;5052117;28;20053;-56
2023/04/11 06:49:21;;;;;;;12.88;1.85;;;;;;;8.01;100.00;100947.00;5049097;28;20091;-56
2023/04/11 06:51:49;;;;;;;6.53;2.10;;;;;;;8.08;100.00;100938.72;5050523;28;20044;-56
2023/04/11 06:54:18;;;;;;;16.02;2.15;;;;;;;8.18;100.00;100946.97;5051203;28;20052;-56
2023/04/11 06:56:46;;;;;;;9.60;1.65;;;;;;;8.29;100.00;100949.00;5051308;28;20049;-56
2023/04/11 06:59:14;;;;;;;10.38;2.30;;;;;;;8.41;100.00;100945.72;5052609;28;20069;-56
2023/04/11 07:01:42;;;;;;;10.93;2.15;;;;;;;8.47;100.00;100949.81;5049508;28;20484;-56
2023/04/11 07:04:11;;;;;;;13.20;2.00;;;;;;;8.53;100.00;100953.88;5050213;28;20090;-56
2023/04/11 07:06:40;;;;;;;18.40;2.40;;;;;;;8.63;100.00;100952.44;5052298;28;20057;-56
2023/04/11 07:09:10;;;;;;;9.88;1.77;;;;;;;8.75;100.00;100945.66;5050244;28;20504;-57
2023/04/11 07:11:39;;;;;;;10.00;1.83;;;;;;;8.87;100.00;100958.09;5048608;28;20102;-55
2023/04/11 07:14:07;;;;;;;11.25;2.25;;;;;;;8.98;100.00;100954.84;5048607;28;20033;-56
2023/04/11 07:16:35;;;;;;;9.77;2.05;;;;;;;9.11;100.00;100955.03;5050309;28;20053;-56
2023/04/11 07:19:03;;;;;;;8.43;1.77;;;;;;;9.27;100.00;100952.34;5052433;28;20407;-56
2023/04/11 07:21:32;;;;;;;12.15;1.90;;;;;;;9.29;100.00;100964.44;5051031;28;20144;-56
2023/04/11 07:24:03;;;;;;;6.13;1.70;;;;;;;9.34;100.00;100963.34;5051963;28;20061;-56
2023/04/11 07:26:37;;;;;;;;;;;;;;;9.34;100.00;100955.44;5051612;28;20069;-56
2023/04/11 07:29:05;;;;;;;11.25;1.70;;;;;;;9.39;100.00;100963.91;5051291;28;19921;-56
2023/04/11 07:31:37;;;;;;;9.70;1.67;;;;;;;9.43;100.00;100960.19;5048196;28;20070;-56
2023/04/11 07:34:05;;;;;;;11.23;2.13;;;;;;;9.35;100.00;100963.22;5049366;28;20045;-57
2023/04/11 07:36:34;;;;;;;11.80;1.95;;;;;;;9.29;100.00;100964.44;5049304;28;20057;-57
2023/04/11 07:39:07;;;;;;;6.82;1.70;;;;;;;9.34;100.00;100960.69;5049479;28;20467;-56
2023/04/11 07:41:36;;;;;;;7.03;1.77;;;;;;;9.46;100.00;100962.63;5048809;28;20069;-57
2023/04/11 07:44:06;;;;;;;11.68;2.53;;;;;;;9.65;100.00;100957.13;5048707;28;20043;-57
2023/04/11 07:46:36;;;;;;;10.95;2.13;;;;;;;9.73;100.00;100961.94;5051506;28;20435;-57
2023/04/11 07:49:05;;;;;;;13.77;2.05;;;;;;;9.92;100.00;100967.75;5052117;28;20380;-57
2023/04/11 07:51:33;;;;;;;11.48;2.05;;;;;;;10.06;100.00;100968.72;5051281;28;20053;-57
2023/04/11 07:54:01;;;;;;;10.23;1.60;;;;;;;10.08;100.00;100977.34;5049033;28;20072;-57
2023/04/11 07:56:30;;;;;;;10.95;2.42;;;;;;;9.94;100.00;100981.66;5048703;28;20381;-57
2023/04/11 07:59:00;;;;;;;10.98;1.80;;;;;;;9.96;100.00;100987.66;5051560;28;20115;-57
2023/04/11 08:01:28;;;;;;;13.27;2.42;;;;;;;10.04;100.00;100991.63;5052168;28;20440;-57
2023/04/11 08:03:56;;;;;;;12.30;2.20;;;;;;;10.00;100.00;100976.97;5051988;28;20048;-56
2023/04/11 08:06:27;;;;;;;9.38;1.60;;;;;;;10.03;100.00;100982.88;5050390;28;20045;-57
2023/04/11 08:08:57;;;;;;;9.57;1.83;;;;;;;10.15;100.00;100983.91;5047952;28;20063;-56
2023/04/11 08:11:25;;;;;;;7.43;1.40;;;;;;;10.35;100.00;100993.25;5050793;28;20052;-56
2023/04/11 08:13:57;;;;;;;13.43;1.70;;;;;;;10.55;100.00;100992.00;5048628;28;20079;-57
2023/04/11 08:16:26;;;;;;;9.48;1.83;;;;;;;10.75;100.00;100998.63;5047438;28;20063;-62
2023/04/11 08:18:56;;;;;;;12.43;1.73;;;;;;;10.93;100.00;100999.22;5048714;28;20774;-62
2023/04/11 08:21:24;;;;;;;10.13;1.95;;;;;;;11.12;100.00;100988.34;5049636;28;20452;-57
2023/04/11 08:23:52;;;;;;;9.20;2.20;;;;;;;11.16;100.00;100999.53;5051826;28;20079;-57
2023/04/11 08:26:20;;;;;;;12.13;1.80;;;;;;;11.04;100.00;101008.25;5049722;28;20045;-57
2023/04/11 08:28:48;;;;;;;10.73;1.70;;;;;;;11.01;100.00;101016.34;5051762;28;20053;-57
2023/04/11 08:31:21;;;;;;;14.88;1.73;;;;;;;10.93;100.00;101022.09;5051956;28;20044;-57
2023/04/11 08:33:50;;;;;;;8.68;2.10;;;;;;;10.95;100.00;101034.19;5051930;28;20048;-57
2023/04/11 08:36:18;;;;;;;8.25;1.80;;;;;;;10.98;100.00;101034.00;5051795;28;20048;-57
2023/04/11 08:38:46;;;;;;;10.65;1.67;;;;;;;11.07;100.00;101029.94;5052395;28;20048;-56
2023/04/11 08:41:14;;;;;;;9.52;1.58;;;;;;;11.31;100.00;101027.50;5054747;28;20127;-57
2023/04/11 08:43:44;;;;;;;10.32;1.65;;;;;;;11.26;100.00;101034.88;5054165;28;20114;-57
2023/04/11 08:46:12;;;;;;;7.95;1.33;;;;;;;11.36;100.00;101036.88;5051677;28;20044;-56
2023/04/11 08:48:45;;;;;;;8.20;1.75;;;;;;;11.29;100.00;101039.94;5051136;28;20059;-56
2023/04/11 08:51:13;;;;;;;10.45;1.70;;;;;;;11.60;100.00;101037.06;5052023;28;20053;-56
2023/04/11 08:53:42;;;;;;;11.27;1.75;;;;;;;11.58;100.00;101045.06;5051767;28;20049;-56
2023/04/11 08:56:16;;;;;;;11.38;2.40;;;;;;;11.93;100.00;101039.25;5054736;28;20102;-57
2023/04/11 08:58:44;;;;;;;10.65;1.40;;;;;;;12.11;100.00;101020.50;5053357;28;20102;-57
2023/04/11 09:01:26;;;;;;;7.25;1.50;;;;;;;12.11;100.00;101046.88;5051607;28;20056;-56
2023/04/11 09:03:55;;;;;;;9.38;1.48;;;;;;;12.32;100.00;101045.41;5050780;28;20087;-62
2023/04/11 09:06:25;;;;;;;8.55;1.55;;;;;;;12.56;100.00;101044.63;5050589;28;20057;-62
2023/04/11 09:08:53;;;;;;;6.90;1.33;;;;;;;12.55;99.32;101055.28;5051238;28;20049;-62
2023/04/11 09:11:21;;;;;;;8.25;1.83;;;;;;;12.68;100.00;101043.75;5050252;28;20091;-64
2023/04/11 09:14:05;;;;;;;12.48;1.83;;;;;;;13.00;100.00;101045.03;5052473;28;20044;-63
2023/04/11 09:16:34;;;;;;;10.23;1.70;;;;;;;13.25;100.00;101052.03;5054459;28;20488;-62
2023/04/11 09:19:03;;;;;;;10.18;2.00;;;;;;;13.33;99.11;101057.59;5049231;28;20061;-62
2023/04/11 09:21:48;;;;;;;10.52;1.80;;;;;;;13.51;96.99;101049.28;5051218;28;20048;-56
2023/04/11 09:24:17;;;;;;;7.40;1.77;;;;;;;13.72;100.00;101046.84;5053148;28;20047;-56
2023/04/11 09:26:45;;;;;;;7.90;1.40;;;;;;;13.75;95.52;101053.72;5054137;28;20073;-56
2023/04/11 09:29:35;;;;;;;9.45;2.00;;;;;;;13.69;93.11;101042.63;5054169;28;20053;-57
2023/04/11 09:32:03;;;;;;;11.40;2.28;;;;;;;13.57;95.75;101051.47;5050980;28;20503;-57
2023/04/11 09:34:33;;;;;;;9.55;1.83;;;;;;;13.72;97.18;101046.03;5052099;28;20037;-57
2023/04/11 09:37:02;;;;;;;10.15;1.83;;;;;;;13.81;97.25;101047.94;5050665;28;20831;-56
2023/04/11 09:39:31;;;;;;;7.32;1.90;;;;;;;13.81;94.06;101046.16;5049882;28;20049;-56
2023/04/11 09:41:59;;;;;;;10.25;1.90;;;;;;;13.62;94.02;101052.00;5053749;28;20041;-56
2023/04/11 09:44:38;;;;;;;10.30;2.08;;;;;;;13.57;97.26;101053.28;5053846;28;20064;-56
2023/04/11 09:47:06;;;;;;;10.23;1.95;;;;;;;13.86;97.88;101061.66;5050482;28;20083;-56
2023/04/11 09:49:36;;;;;;;9.18;1.63;;;;;;;13.42;90.49;101050.00;5050899;28;20045;-56
2023/04/11 09:52:05;;;;;;;5.50;1.23;;;;;;;13.37;88.54;101057.41;5053555;28;20175;-56
2023/04/11 09:54:33;;;;;;;6.93;1.55;;;;;;;13.38;90.02;101054.66;5051222;28;20057;-57
2023/04/11 09:57:05;;;;;;;8.98;1.70;;;;;;;13.52;91.61;101057.13;5048149;28;20099;-56
2023/04/11 09:59:39;;;;;;;8.57;1.50;;;;;;;13.27;90.50;101063.31;5050349;28;20053;-56
2023/04/11 10:02:10;;;;;;;8.27;2.03;;;;;;;13.19;93.01;101077.06;5050780;28;20037;-56
2023/04/11 10:04:40;;;;;;;12.07;1.92;;;;;;;12.72;92.90;101073.44;5049364;28;20057;-56
2023/04/11 10:07:15;;;;;;;8.63;2.03;;;;;;;12.84;91.15;101082.25;5049892;28;20523;-56
2023/04/11 10:09:46;;;;;;;6.00;1.42;;;;;;;13.01;86.39;101073.97;5050145;28;20070;-57
2023/04/11 10:12:30;;;;;;;9.20;1.77;;;;;;;13.48;86.87;101068.00;5051197;28;20053;-56
2023/04/11 10:15:07;;;;;;;9.40;1.63;;;;;;;13.54;76.59;101086.06;5052969;28;20411;-56
2023/04/11 10:17:39;;;;;;;8.75;1.27;;;;;;;13.30;79.84;101081.56;5050555;28;20055;-56
2023/04/11 10:20:44;;;;;;;7.00;1.50;;;;;;;13.65;84.13;101069.41;5050282;28;21033;-58
2023/04/11 10:23:14;;;;;;;7.15;1.58;;;;;;;13.90;81.35;101076.34;5052220;28;20033;-56
2023/04/11 10:25:50;;;;;;;6.60;1.15;;;;;;;14.20;77.69;101088.19;5052740;28;20037;-57
2023/04/11 10:28:38;;;;;;;7.18;1.33;;;;;;;14.28;72.93;101075.22;5050877;28;20561;-56
2023/04/11 10:31:11;;;;;;;6.68;1.38;;;;;;;14.39;69.90;101070.91;5049792;28;20049;-56
2023/04/11 10:34:00;;;;;;;5.43;1.35;;;;;;;14.48;69.26;101081.59;5052507;28;20127;-56
2023/04/11 10:37:02;;;;;;;7.22;1.33;;;;;;;14.47;70.29;101081.72;5052915;28;20053;-56
2023/04/11 10:40:08;;;;;;;7.93;1.73;;;;;;;14.82;72.15;101075.47;5050793;28;20095;-56
2023/04/11 10:42:38;;;;;;;3.20;1.30;;;;;;;15.24;75.39;101073.00;5049727;28;20507;-56
2023/04/11 10:45:20;;;;;;;9.05;1.25;;;;;;;15.05;63.39;101081.59;5049029;28;20049;-56
2023/04/11 10:48:10;;;;;;;7.35;1.40;;;;;;;15.10;62.13;101083.88;5051614;28;20072;-56
2023/04/11 10:50:43;;;;;;;7.78;1.48;;;;;;;15.21;63.29;101067.94;5049861;28;20123;-57
2023/04/11 10:53:37;;;;;;;6.85;1.48;;;;;;;15.22;62.14;101082.88;5049528;28;20049;-56
2023/04/11 10:56:05;;;;;;;5.78;1.30;;;;;;;15.54;60.96;101092.66;5048292;28;20488;-56
2023/04/11 10:58:38;;;;;;;6.65;1.35;;;;;;;15.91;62.44;101084.34;5051937;28;20049;-57
2023/04/11 11:01:18;;;;;;;6.78;1.00;;;;;;;15.83;59.95;101073.53;5052602;28;20049;-56
2023/04/11 11:03:59;;;;;;;8.02;1.70;;;;;;;16.07;59.07;101078.56;5051251;28;20049;-56
2023/04/11 11:06:34;;;;;;;5.00;1.00;;;;;;;16.37;55.39;101080.44;5049163;28;20045;-56
2023/04/11 11:09:27;;;;;;;8.75;1.40;;;;;;;16.67;55.69;101084.03;5052097;28;20114;-56
2023/04/11 11:12:09;;;;;;;5.28;1.25;;;;;;;16.81;53.79;101087.28;5051520;28;20128;-57
2023/04/11 11:14:37;;;;;;;6.38;1.10;;;;;;;17.06;54.78;101081.53;5048959;28;20064;-57
2023/04/11 11:17:07;;;;;;;5.15;1.02;;;;;;;17.23;54.44;101087.16;5051265;28;20090;-56
2023/04/11 11:19:36;;;;;;;5.97;1.25;;;;;;;16.86;52.22;101087.72;5052105;28;20132;-56
2023/04/11 11:22:05;;;;;;;5.43;1.25;;;;;;;17.19;53.47;101091.06;5049358;28;20051;-56
2023/04/11 11:24:34;;;;;;;6.90;1.17;;;;;;;17.39;51.50;101083.97;5049670;28;20052;-56
2023/04/11 11:27:03;;;;;;;6.60;1.35;;;;;;;17.15;49.99;101102.94;5050016;28;20502;-56
2023/04/11 11:29:33;;;;;;;5.95;1.45;;;;;;;16.83;51.33;101111.91;5050169;28;20076;-57
2023/04/11 11:32:02;;;;;;;6.40;1.60;;;;;;;17.10;51.58;101116.66;5049052;28;20523;-58
2023/04/11 11:34:33;;;;;;;5.28;1.15;;;;;;;17.06;52.01;101102.78;5052255;28;20048;-58